Time,TemperatureF,DewpointF,PressureIn,WindDirection,WindDirectionDegrees,WindSpeedMPH,WindSpeedGustMPH,Humidity,HourlyPrecipIn,Conditions,Clouds,dailyrainin,SoftwareType,DateUTC
2013-10-18 00:01:00,45.3,44.0,29.85,WSW,249,5.1,13.0,95,0.00,,,0.00,WUHU21623XXSP,2013-10-18 04:01:00,
2013-10-18 00:06:00,45.3,44.0,29.85,WSW,246,5.4,15.0,95,0.00,,,0.00,WUHU21623XXSP,2013-10-18 04:06:00,
2013-10-18 00:11:00,45.1,43.8,29.86,WSW,245,6.3,15.0,95,0.00,,,0.00,WUHU21623XXSP,2013-10-18 04:11:00,
2013-10-18 00:16:00,45.1,43.8,29.86,SW,234,4.9,14.1,95,0.00,,,0.00,WUHU21623XXSP,2013-10-18 04:16:00,
2013-10-18 00:21:00,45.0,43.7,29.86,SW,225,5.1,14.1,95,0.00,,,0.00,WUHU21623XXSP,2013-10-18 04:21:00,
2013-10-18 00:26:00,45.0,43.7,29.86,WSW,247,8.3,12.5,95,0.00,,,0.00,WUHU21623XXSP,2013-10-18 04:26:00,
2013-10-18 00:31:00,45.0,43.7,29.86,SW,231,5.4,12.5,95,0.00,,,0.00,WUHU21623XXSP,2013-10-18 04:31:00,
2013-10-18 00:36:00,45.0,43.7,29.86,SSW,212,5.7,14.5,95,0.00,,,0.00,WUHU21623XXSP,2013-10-18 04:36:00,
2013-10-18 00:41:00,45.0,43.7,29.86,WSW,247,6.0,14.5,95,0.00,,,0.00,WUHU21623XXSP,2013-10-18 04:41:00,
2013-10-18 00:46:00,44.8,43.5,29.86,WSW,249,6.7,17.7,95,0.00,,,0.00,WUHU21623XXSP,2013-10-18 04:46:00,
2013-10-18 00:51:00,44.8,43.5,29.85,WNW,292,6.0,17.7,95,0.00,,,0.00,WUHU21623XXSP,2013-10-18 04:51:00,
2013-10-18 00:56:00,44.8,43.5,29.85,WSW,244,7.7,17.2,95,0.00,,,0.00,WUHU21623XXSP,2013-10-18 04:56:00,
2013-10-18 01:01:00,44.8,43.5,29.86,WSW,247,6.5,17.2,95,0.00,,,0.00,WUHU21623XXSP,2013-10-18 05:01:00,
2013-10-18 01:10:00,44.8,43.5,29.86,West,270,6.7,6.7,95,0.00,,,0.00,WUHU21623XXSP,2013-10-18 05:10:00,
2013-10-18 01:15:00,44.6,43.3,29.86,West,270,9.6,15.7,95,0.00,,,0.00,WUHU21623XXSP,2013-10-18 05:15:00,
2013-10-18 01:20:00,44.6,43.3,29.86,West,262,4.7,15.7,95,0.00,,,0.00,WUHU21623XXSP,2013-10-18 05:20:00,
2013-10-18 01:25:00,44.6,43.3,29.86,WSW,246,1.8,10.7,95,0.00,,,0.00,WUHU21623XXSP,2013-10-18 05:25:00,
2013-10-18 01:30:00,44.6,43.3,29.86,SW,233,4.0,10.1,95,0.00,,,0.00,WUHU21623XXSP,2013-10-18 05:30:00,
2013-10-18 01:35:00,44.6,43.3,29.86,SW,225,4.5,10.1,95,0.00,,,0.00,WUHU21623XXSP,2013-10-18 05:35:00,
2013-10-18 01:40:00,44.6,43.3,29.86,SW,232,2.7,9.6,95,0.00,,,0.00,WUHU21623XXSP,2013-10-18 05:40:00,
2013-10-18 01:45:00,44.8,43.5,29.86,SW,228,6.2,13.9,95,0.00,,,0.00,WUHU21623XXSP,2013-10-18 05:45:00,
2013-10-18 01:50:00,44.8,43.5,29.86,WSW,247,4.3,13.9,95,0.00,,,0.00,WUHU21623XXSP,2013-10-18 05:50:00,
2013-10-18 01:55:00,44.8,43.5,29.86,WSW,247,2.9,7.2,95,0.00,,,0.00,WUHU21623XXSP,2013-10-18 05:55:00,
2013-10-18 02:00:00,44.8,43.5,29.87,WSW,245,3.3,8.5,95,0.00,,,0.00,WUHU21623XXSP,2013-10-18 06:00:00,
2013-10-18 02:05:00,44.8,43.5,29.87,WSW,247,5.6,8.5,95,0.00,,,0.00,WUHU21623XXSP,2013-10-18 06:05:00,
2013-10-18 02:10:00,44.4,43.1,29.87,WSW,247,3.8,12.8,95,0.00,,,0.00,WUHU21623XXSP,2013-10-18 06:10:00,
2013-10-18 02:15:00,44.2,42.9,29.87,WSW,250,7.4,12.8,95,0.00,,,0.00,WUHU21623XXSP,2013-10-18 06:15:00,
2013-10-18 02:20:00,43.9,42.6,29.87,WSW,254,2.9,13.0,95,0.00,,,0.00,WUHU21623XXSP,2013-10-18 06:20:00,
2013-10-18 02:25:00,43.9,42.6,29.87,SW,225,9.4,17.4,95,0.00,,,0.00,WUHU21623XXSP,2013-10-18 06:25:00,
2013-10-18 02:30:00,43.7,42.4,29.87,West,270,8.3,17.4,95,0.00,,,0.00,WUHU21623XXSP,2013-10-18 06:30:00,
2013-10-18 02:35:00,43.7,42.4,29.87,WSW,243,6.3,13.9,95,0.00,,,0.00,WUHU21623XXSP,2013-10-18 06:35:00,
2013-10-18 02:40:00,43.5,42.2,29.87,WSW,251,4.3,13.9,95,0.00,,,0.00,WUHU21623XXSP,2013-10-18 06:40:00,
2013-10-18 02:45:00,43.5,42.2,29.87,WNW,292,4.7,12.1,95,0.00,,,0.00,WUHU21623XXSP,2013-10-18 06:45:00,
2013-10-18 02:51:00,43.5,42.2,29.87,SSW,202,6.9,13.0,95,0.00,,,0.00,WUHU21623XXSP,2013-10-18 06:51:00,
2013-10-18 02:56:00,43.5,42.2,29.87,WSW,250,5.8,20.8,95,0.00,,,0.00,WUHU21623XXSP,2013-10-18 06:56:00,
2013-10-18 03:01:00,43.5,42.2,29.87,WSW,251,7.7,20.8,95,0.00,,,0.00,WUHU21623XXSP,2013-10-18 07:01:00,
2013-10-18 03:06:00,43.5,42.0,29.88,SW,225,12.3,14.3,94,0.00,,,0.00,WUHU21623XXSP,2013-10-18 07:06:00,
2013-10-18 03:11:00,43.5,42.0,29.88,WSW,248,6.9,12.3,94,0.00,,,0.00,WUHU21623XXSP,2013-10-18 07:11:00,
2013-10-18 03:16:00,43.5,42.0,29.88,WSW,246,4.9,13.4,94,0.00,,,0.00,WUHU21623XXSP,2013-10-18 07:16:00,
2013-10-18 03:21:00,43.5,42.0,29.88,WSW,253,5.8,13.9,94,0.00,,,0.00,WUHU21623XXSP,2013-10-18 07:21:00,
2013-10-18 03:26:00,43.5,42.0,29.88,WSW,247,5.4,19.9,94,0.00,,,0.00,WUHU21623XXSP,2013-10-18 07:26:00,
2013-10-18 03:31:00,43.5,42.0,29.88,SW,225,8.3,19.9,94,0.00,,,0.00,WUHU21623XXSP,2013-10-18 07:31:00,
2013-10-18 03:36:00,43.5,42.0,29.88,WSW,252,8.0,12.8,94,0.00,,,0.00,WUHU21623XXSP,2013-10-18 07:36:00,
2013-10-18 03:41:00,43.5,42.0,29.88,WSW,238,4.5,12.8,94,0.00,,,0.00,WUHU21623XXSP,2013-10-18 07:41:00,
2013-10-18 03:46:00,43.5,42.0,29.88,West,263,5.4,12.8,94,0.00,,,0.00,WUHU21623XXSP,2013-10-18 07:46:00,
2013-10-18 03:52:00,43.5,42.0,29.88,West,270,8.5,11.6,94,0.00,,,0.00,WUHU21623XXSP,2013-10-18 07:52:00,
2013-10-18 03:57:00,43.5,42.0,29.88,WSW,240,7.1,12.8,94,0.00,,,0.00,WUHU21623XXSP,2013-10-18 07:57:00,
2013-10-18 04:02:00,43.5,42.0,29.88,SW,225,7.4,13.2,94,0.00,,,0.00,WUHU21623XXSP,2013-10-18 08:02:00,
2013-10-18 04:07:00,43.7,42.2,29.88,WSW,253,4.8,13.2,94,0.00,,,0.00,WUHU21623XXSP,2013-10-18 08:07:00,
2013-10-18 04:12:00,43.5,42.0,29.89,SW,225,6.0,13.0,94,0.00,,,0.00,WUHU21623XXSP,2013-10-18 08:12:00,
2013-10-18 04:17:00,43.5,42.0,29.89,WSW,247,9.4,17.7,94,0.00,,,0.00,WUHU21623XXSP,2013-10-18 08:17:00,
2013-10-18 04:22:00,43.5,42.0,29.89,West,270,5.8,17.7,94,0.00,,,0.00,WUHU21623XXSP,2013-10-18 08:22:00,
2013-10-18 04:27:00,43.5,42.0,29.89,WSW,247,10.5,13.0,94,0.00,,,0.00,WUHU21623XXSP,2013-10-18 08:27:00,
2013-10-18 04:32:00,43.5,42.0,29.89,WSW,247,5.5,13.0,94,0.00,,,0.00,WUHU21623XXSP,2013-10-18 08:32:00,
2013-10-18 04:37:00,43.3,41.8,29.89,WSW,249,4.4,9.4,94,0.00,,,0.00,WUHU21623XXSP,2013-10-18 08:37:00,
2013-10-18 04:42:00,43.0,41.5,29.90,SSW,209,6.7,9.4,94,0.00,,,0.00,WUHU21623XXSP,2013-10-18 08:42:00,
2013-10-18 04:47:00,43.0,41.5,29.90,West,270,3.8,9.4,94,0.00,,,0.00,WUHU21623XXSP,2013-10-18 08:47:00,
2013-10-18 04:52:00,43.0,41.2,29.90,SW,225,3.8,8.9,94,0.00,,,0.00,WUHU21623XXSP,2013-10-18 08:52:00,
2013-10-18 04:57:00,43.0,41.2,29.90,WSW,237,4.6,8.5,94,0.00,,,0.00,WUHU21623XXSP,2013-10-18 08:57:00,
2013-10-18 05:02:00,43.0,41.2,29.90,SW,225,6.5,8.7,94,0.00,,,0.00,WUHU21623XXSP,2013-10-18 09:02:00,
2013-10-18 05:07:00,43.0,41.2,29.91,WSW,247,6.9,16.8,94,0.00,,,0.00,WUHU21623XXSP,2013-10-18 09:07:00,
2013-10-18 05:12:00,43.0,41.2,29.90,WSW,239,5.4,16.8,94,0.00,,,0.00,WUHU21623XXSP,2013-10-18 09:12:00,
2013-10-18 05:18:00,43.0,41.2,29.90,SW,225,5.1,13.2,94,0.00,,,0.00,WUHU21623XXSP,2013-10-18 09:18:00,
2013-10-18 05:23:00,43.0,41.2,29.90,SW,235,3.4,11.4,94,0.00,,,0.00,WUHU21623XXSP,2013-10-18 09:23:00,
2013-10-18 05:31:00,43.0,41.2,29.90,SSW,202,9.2,14.8,94,0.00,,,0.00,WUHU21623XXSP,2013-10-18 09:31:00,
2013-10-18 05:37:00,43.0,41.2,29.90,WSW,247,6.5,11.9,94,0.00,,,0.00,WUHU21623XXSP,2013-10-18 09:37:00,
2013-10-18 05:42:00,42.8,41.0,29.90,WSW,240,6.3,11.9,94,0.00,,,0.00,WUHU21623XXSP,2013-10-18 09:42:00,
2013-10-18 05:48:00,42.6,40.8,29.91,WSW,243,6.2,11.0,94,0.00,,,0.00,WUHU21623XXSP,2013-10-18 09:48:00,
2013-10-18 05:53:00,42.6,40.8,29.91,West,269,6.3,12.8,94,0.00,,,0.00,WUHU21623XXSP,2013-10-18 09:53:00,
2013-10-18 05:59:00,42.8,41.0,29.91,SW,228,8.4,13.9,94,0.00,,,0.00,WUHU21623XXSP,2013-10-18 09:59:00,
2013-10-18 06:05:00,42.6,40.8,29.91,West,270,6.7,14.1,94,0.00,,,0.00,WUHU21623XXSP,2013-10-18 10:05:00,
2013-10-18 06:10:00,42.8,41.0,29.91,West,270,6.3,11.9,94,0.00,,,0.00,WUHU21623XXSP,2013-10-18 10:10:00,
2013-10-18 06:15:00,42.6,40.8,29.92,WSW,248,6.7,13.4,94,0.00,,,0.00,WUHU21623XXSP,2013-10-18 10:15:00,
2013-10-18 06:20:00,42.8,41.0,29.92,SSW,202,5.6,13.4,94,0.00,,,0.00,WUHU21623XXSP,2013-10-18 10:20:00,
2013-10-18 06:25:00,42.8,41.0,29.92,South,180,8.9,11.2,94,0.00,,,0.00,WUHU21623XXSP,2013-10-18 10:25:00,
2013-10-18 06:31:00,42.6,40.8,29.92,WSW,239,8.1,13.0,94,0.00,,,0.00,WUHU21623XXSP,2013-10-18 10:31:00,
2013-10-18 06:36:00,42.6,40.8,29.92,SSW,202,10.7,13.0,94,0.00,,,0.00,WUHU21623XXSP,2013-10-18 10:36:00,
2013-10-18 06:40:00,42.6,40.8,29.92,West,270,8.1,14.1,94,0.00,,,0.00,WUHU21623XXSP,2013-10-18 10:40:00,
2013-10-18 06:45:00,42.8,41.0,29.92,West,262,6.1,14.1,94,0.00,,,0.00,WUHU21623XXSP,2013-10-18 10:45:00,
2013-10-18 06:50:00,42.6,40.8,29.92,SW,226,6.9,14.1,94,0.00,,,0.00,WUHU21623XXSP,2013-10-18 10:50:00,
2013-10-18 06:55:00,42.6,40.8,29.92,SSW,202,13.9,13.9,94,0.00,,,0.00,WUHU21623XXSP,2013-10-18 10:55:00,
2013-10-18 07:00:00,42.6,40.8,29.92,SW,227,4.9,13.9,94,0.00,,,0.00,WUHU21623XXSP,2013-10-18 11:00:00,
2013-10-18 07:05:00,42.6,40.8,29.93,WSW,243,5.8,11.6,94,0.00,,,0.00,WUHU21623XXSP,2013-10-18 11:05:00,
2013-10-18 07:10:00,42.6,40.8,29.93,SW,225,9.2,10.7,94,0.00,,,0.00,WUHU21623XXSP,2013-10-18 11:10:00,
2013-10-18 07:15:00,42.6,40.8,29.93,WSW,247,9.4,10.7,94,0.00,,,0.00,WUHU21623XXSP,2013-10-18 11:15:00,
2013-10-18 07:20:00,42.6,40.8,29.93,WSW,240,8.6,14.8,94,0.00,,,0.00,WUHU21623XXSP,2013-10-18 11:20:00,
2013-10-18 07:25:00,42.6,40.8,29.93,WSW,255,5.8,14.8,94,0.00,,,0.00,WUHU21623XXSP,2013-10-18 11:25:00,
2013-10-18 07:30:00,42.6,40.8,29.93,West,270,8.1,11.6,94,0.00,,,0.00,WUHU21623XXSP,2013-10-18 11:30:00,
2013-10-18 07:35:00,42.6,40.8,29.93,SW,235,7.2,13.0,94,0.00,,,0.00,WUHU21623XXSP,2013-10-18 11:35:00,
2013-10-18 07:40:00,42.6,40.6,29.93,WSW,243,7.9,13.0,93,0.00,,,0.00,WUHU21623XXSP,2013-10-18 11:40:00,
2013-10-18 07:46:00,42.6,40.6,29.93,WSW,237,8.1,16.6,93,0.00,,,0.00,WUHU21623XXSP,2013-10-18 11:46:00,
2013-10-18 07:51:00,42.6,40.6,29.93,WSW,240,7.7,16.6,93,0.00,,,0.00,WUHU21623XXSP,2013-10-18 11:51:00,
2013-10-18 07:56:00,42.6,40.6,29.94,WSW,247,9.6,13.6,93,0.00,,,0.00,WUHU21623XXSP,2013-10-18 11:56:00,
2013-10-18 08:01:00,42.6,40.6,29.94,WSW,241,5.9,12.5,93,0.00,,,0.00,WUHU21623XXSP,2013-10-18 12:01:00,
2013-10-18 08:06:00,42.8,40.8,29.94,SSW,202,19.0,19.0,93,0.00,,,0.00,WUHU21623XXSP,2013-10-18 12:06:00,
2013-10-18 08:11:00,43.0,41.0,29.94,WSW,249,2.9,19.0,93,0.00,,,0.00,WUHU21623XXSP,2013-10-18 12:11:00,
2013-10-18 08:16:00,43.0,41.0,29.94,West,270,8.1,11.0,93,0.00,,,0.00,WUHU21623XXSP,2013-10-18 12:16:00,
2013-10-18 08:21:00,43.0,41.0,29.94,SW,231,8.5,13.9,93,0.00,,,0.00,WUHU21623XXSP,2013-10-18 12:21:00,
2013-10-18 08:26:00,43.0,41.0,29.95,SW,225,7.4,13.9,93,0.00,,,0.00,WUHU21623XXSP,2013-10-18 12:26:00,
2013-10-18 08:31:00,43.0,41.0,29.95,WSW,247,8.7,11.6,93,0.00,,,0.00,WUHU21623XXSP,2013-10-18 12:31:00,
2013-10-18 08:36:00,43.0,41.0,29.95,WSW,251,5.2,10.1,93,0.00,,,0.00,WUHU21623XXSP,2013-10-18 12:36:00,
2013-10-18 08:41:00,43.2,41.2,29.95,WSW,254,6.2,9.8,93,0.00,,,0.00,WUHU21623XXSP,2013-10-18 12:41:00,
2013-10-18 08:46:00,43.2,41.2,29.96,WSW,237,3.0,10.7,93,0.00,,,0.00,WUHU21623XXSP,2013-10-18 12:46:00,
2013-10-18 08:51:00,43.2,41.2,29.96,WSW,239,4.5,10.7,93,0.00,,,0.00,WUHU21623XXSP,2013-10-18 12:51:00,
2013-10-18 08:56:00,43.0,40.8,29.96,WSW,238,10.4,15.7,92,0.00,,,0.00,WUHU21623XXSP,2013-10-18 12:56:00,
2013-10-18 09:01:00,43.2,41.0,29.96,WSW,249,8.1,18.1,92,0.00,,,0.00,WUHU21623XXSP,2013-10-18 13:01:00,
2013-10-18 09:06:00,43.0,40.8,29.97,West,270,7.4,18.1,92,0.00,,,0.00,WUHU21623XXSP,2013-10-18 13:06:00,
2013-10-18 09:11:00,43.2,41.0,29.97,SSW,202,7.4,15.7,92,0.00,,,0.00,WUHU21623XXSP,2013-10-18 13:11:00,
2013-10-18 09:16:00,43.2,41.0,29.97,SW,228,8.3,15.9,92,0.00,,,0.00,WUHU21623XXSP,2013-10-18 13:16:00,
2013-10-18 09:21:00,43.3,41.1,29.97,SW,225,5.1,15.9,92,0.00,,,0.00,WUHU21623XXSP,2013-10-18 13:21:00,
2013-10-18 09:26:00,43.3,40.9,29.97,SW,225,8.3,12.5,91,0.00,,,0.00,WUHU21623XXSP,2013-10-18 13:26:00,
2013-10-18 09:32:00,43.5,41.1,29.97,WSW,247,16.8,16.8,91,0.00,,,0.00,WUHU21623XXSP,2013-10-18 13:32:00,
2013-10-18 09:37:00,43.7,41.3,29.98,SW,225,9.2,16.8,91,0.00,,,0.00,WUHU21623XXSP,2013-10-18 13:37:00,
2013-10-18 09:42:00,43.5,40.8,29.98,SW,233,6.7,14.5,90,0.00,,,0.00,WUHU21623XXSP,2013-10-18 13:42:00,
2013-10-18 09:47:00,43.9,41.5,29.98,WSW,247,7.4,14.1,91,0.00,,,0.00,WUHU21623XXSP,2013-10-18 13:47:00,
2013-10-18 09:52:00,43.7,41.3,29.98,SSW,202,9.2,14.1,91,0.00,,,0.00,WUHU21623XXSP,2013-10-18 13:52:00,
2013-10-18 09:57:00,43.9,41.5,29.99,West,270,4.7,13.0,91,0.00,,,0.00,WUHU21623XXSP,2013-10-18 13:57:00,
2013-10-18 10:02:00,44.2,41.5,29.99,SW,225,5.6,17.9,90,0.00,,,0.00,WUHU21623XXSP,2013-10-18 14:02:00,
2013-10-18 10:07:00,44.4,41.7,29.99,WSW,244,7.8,17.9,90,0.00,,,0.00,WUHU21623XXSP,2013-10-18 14:07:00,
2013-10-18 10:12:00,44.6,41.7,29.99,WSW,252,5.5,15.7,90,0.00,,,0.00,WUHU21623XXSP,2013-10-18 14:12:00,
2013-10-18 10:17:00,45.0,42.1,29.99,WSW,255,9.2,15.2,90,0.00,,,0.00,WUHU21623XXSP,2013-10-18 14:17:00,
2013-10-18 10:22:00,45.7,42.5,29.99,WSW,247,12.5,15.2,89,0.00,,,0.00,WUHU21623XXSP,2013-10-18 14:22:00,
2013-10-18 10:28:00,46.2,42.8,29.99,West,267,5.7,12.8,88,0.00,,,0.00,WUHU21623XXSP,2013-10-18 14:28:00,
2013-10-18 10:34:00,46.8,43.2,29.99,WSW,254,5.4,15.9,87,0.00,,,0.00,WUHU21623XXSP,2013-10-18 14:34:00,
2013-10-18 10:39:00,47.3,43.7,29.99,WNW,292,10.7,15.9,87,0.00,,,0.00,WUHU21623XXSP,2013-10-18 14:39:00,
2013-10-18 10:44:00,47.7,43.8,29.99,West,270,11.0,15.7,86,0.00,,,0.00,WUHU21623XXSP,2013-10-18 14:44:00,
2013-10-18 10:49:00,47.7,43.6,29.99,WSW,247,10.1,14.5,86,0.00,,,0.00,WUHU21623XXSP,2013-10-18 14:49:00,
2013-10-18 10:54:00,47.7,43.3,29.99,West,266,3.7,12.1,85,0.00,,,0.00,WUHU21623XXSP,2013-10-18 14:54:00,
2013-10-18 10:59:00,47.8,43.4,29.99,WSW,248,5.1,12.1,85,0.00,,,0.00,WUHU21623XXSP,2013-10-18 14:59:00,
2013-10-18 11:04:00,48.0,43.4,29.99,West,274,5.3,16.6,84,0.00,,,0.00,WUHU21623XXSP,2013-10-18 15:04:00,
2013-10-18 11:09:00,48.0,42.7,29.99,WSW,253,8.2,16.6,82,0.00,,,0.00,WUHU21623XXSP,2013-10-18 15:09:00,
2013-10-18 11:14:00,47.8,42.5,29.99,WSW,247,7.8,14.5,82,0.00,,,0.00,WUHU21623XXSP,2013-10-18 15:14:00,
2013-10-18 11:20:00,47.8,42.5,29.99,WSW,247,9.2,13.2,82,0.00,,,0.00,WUHU21623XXSP,2013-10-18 15:20:00,
2013-10-18 11:25:00,48.0,42.7,29.99,SW,225,6.3,11.6,82,0.00,,,0.00,WUHU21623XXSP,2013-10-18 15:25:00,
2013-10-18 11:30:00,48.6,43.2,29.99,WSW,247,13.0,13.0,82,0.00,,,0.00,WUHU21623XXSP,2013-10-18 15:30:00,
2013-10-18 11:35:00,49.6,43.7,29.99,WSW,247,7.6,16.1,80,0.00,,,0.00,WUHU21623XXSP,2013-10-18 15:35:00,
2013-10-18 11:40:00,50.5,44.3,29.99,SW,225,6.7,16.1,79,0.00,,,0.00,WUHU21623XXSP,2013-10-18 15:40:00,
2013-10-18 11:45:00,51.1,44.7,29.99,SW,225,8.7,18.8,78,0.00,,,0.00,WUHU21623XXSP,2013-10-18 15:45:00,
2013-10-18 11:50:00,51.4,44.7,29.99,WSW,252,8.5,18.8,78,0.00,,,0.00,WUHU21623XXSP,2013-10-18 15:50:00,
2013-10-18 11:55:00,51.6,44.6,29.99,WSW,248,8.3,13.6,77,0.00,,,0.00,WUHU21623XXSP,2013-10-18 15:55:00,
2013-10-18 12:00:00,51.4,44.4,29.99,WSW,247,8.7,12.5,77,0.00,,,0.00,WUHU21623XXSP,2013-10-18 16:00:00,
2013-10-18 12:05:00,51.3,44.6,29.99,West,266,3.2,16.3,78,0.00,,,0.00,WUHU21623XXSP,2013-10-18 16:05:00,
2013-10-18 12:10:00,50.9,43.9,29.99,WSW,238,4.7,16.3,77,0.00,,,0.00,WUHU21623XXSP,2013-10-18 16:10:00,
2013-10-18 12:15:00,50.7,43.7,29.99,West,268,6.0,13.2,77,0.00,,,0.00,WUHU21623XXSP,2013-10-18 16:15:00,
2013-10-18 12:20:00,50.7,44.0,29.98,WSW,248,6.4,11.9,78,0.00,,,0.00,WUHU21623XXSP,2013-10-18 16:20:00,
2013-10-18 12:26:00,51.4,44.7,29.99,WSW,247,11.2,15.0,78,0.00,,,0.00,WUHU21623XXSP,2013-10-18 16:26:00,
2013-10-18 12:31:00,52.0,45.0,29.99,WSW,244,8.3,15.0,77,0.00,,,0.00,WUHU21623XXSP,2013-10-18 16:31:00,
2013-10-18 12:36:00,52.3,45.0,29.99,SW,231,10.2,16.3,76,0.00,,,0.00,WUHU21623XXSP,2013-10-18 16:36:00,
2013-10-18 12:41:00,52.7,45.1,29.99,WSW,255,6.7,16.3,75,0.00,,,0.00,WUHU21623XXSP,2013-10-18 16:41:00,
2013-10-18 12:46:00,53.2,45.4,29.99,NNW,337,5.6,12.3,74,0.00,,,0.00,WUHU21623XXSP,2013-10-18 16:46:00,
2013-10-18 12:51:00,54.0,46.1,29.99,West,270,6.3,7.8,74,0.00,,,0.00,WUHU21623XXSP,2013-10-18 16:51:00,
2013-10-18 12:56:00,55.0,46.5,29.98,WSW,253,4.8,8.5,73,0.00,,,0.00,WUHU21623XXSP,2013-10-18 16:56:00,
2013-10-18 13:01:00,54.7,46.0,29.98,SW,225,5.1,8.5,72,0.00,,,0.00,WUHU21623XXSP,2013-10-18 17:01:00,
2013-10-18 13:06:00,53.8,44.5,29.98,NW,304,5.3,10.5,70,0.00,,,0.00,WUHU21623XXSP,2013-10-18 17:06:00,
2013-10-18 13:11:00,53.2,44.2,29.98,SW,236,5.0,10.5,71,0.00,,,0.00,WUHU21623XXSP,2013-10-18 17:11:00,
2013-10-18 13:16:00,52.9,44.2,29.98,WSW,247,4.5,7.4,72,0.00,,,0.00,WUHU21623XXSP,2013-10-18 17:16:00,
2013-10-18 13:22:00,53.4,44.4,29.98,WSW,250,3.7,8.1,71,0.00,,,0.00,WUHU21623XXSP,2013-10-18 17:22:00,
2013-10-18 13:27:00,53.8,44.8,29.98,WSW,238,5.0,8.1,71,0.00,,,0.00,WUHU21623XXSP,2013-10-18 17:27:00,
2013-10-18 13:32:00,54.1,45.1,29.98,SW,223,5.1,7.8,71,0.00,,,0.00,WUHU21623XXSP,2013-10-18 17:32:00,
2013-10-18 13:35:00,54.3,45.3,29.98,West,262,3.5,7.8,71,0.00,,,0.00,WUHU21623XXSP,2013-10-18 17:35:00,
2013-10-18 13:40:00,55.2,45.9,29.97,WSW,246,4.8,7.8,70,0.00,,,0.00,WUHU21623XXSP,2013-10-18 17:40:00,
2013-10-18 13:45:00,56.5,46.5,29.97,WSW,239,4.9,8.3,69,0.00,,,0.00,WUHU21623XXSP,2013-10-18 17:45:00,
2013-10-18 13:52:00,57.4,47.1,29.97,WSW,247,6.0,10.1,68,0.00,,,0.00,WUHU21623XXSP,2013-10-18 17:52:00,
2013-10-18 13:57:00,57.4,46.7,29.97,WSW,243,5.7,8.3,67,0.00,,,0.00,WUHU21623XXSP,2013-10-18 17:57:00,
2013-10-18 14:02:00,57.0,46.4,29.97,West,261,3.3,8.3,67,0.00,,,0.00,WUHU21623XXSP,2013-10-18 18:02:00,
2013-10-18 14:08:00,56.5,45.9,29.97,West,271,4.7,6.9,67,0.00,,,0.00,WUHU21623XXSP,2013-10-18 18:08:00,
2013-10-18 14:12:00,55.9,45.3,29.97,WSW,247,6.0,6.9,67,0.00,,,0.00,WUHU21623XXSP,2013-10-18 18:12:00,
2013-10-18 14:17:00,55.2,44.9,29.97,WSW,242,3.1,7.2,68,0.00,,,0.00,WUHU21623XXSP,2013-10-18 18:17:00,
2013-10-18 14:22:00,54.7,44.5,29.97,WSW,247,5.1,7.2,68,0.00,,,0.00,WUHU21623XXSP,2013-10-18 18:22:00,
2013-10-18 14:27:00,54.3,44.4,29.97,WSW,255,2.5,6.9,69,0.00,,,0.00,WUHU21623XXSP,2013-10-18 18:27:00,
2013-10-18 14:32:00,54.9,45.3,29.96,West,259,3.2,6.7,70,0.00,,,0.00,WUHU21623XXSP,2013-10-18 18:32:00,
2013-10-18 14:37:00,55.8,45.8,29.97,WSW,247,0.0,4.0,69,0.00,,,0.00,WUHU21623XXSP,2013-10-18 18:37:00,
2013-10-18 14:42:00,55.6,45.6,29.97,WNW,282,2.7,4.3,69,0.00,,,0.00,WUHU21623XXSP,2013-10-18 18:42:00,
2013-10-18 14:47:00,54.7,44.8,29.96,West,270,0.0,6.3,69,0.00,,,0.00,WUHU21623XXSP,2013-10-18 18:47:00,
2013-10-18 14:53:00,54.1,44.8,29.96,SW,225,4.0,6.3,70,0.00,,,0.00,WUHU21623XXSP,2013-10-18 18:53:00,
2013-10-18 14:59:00,55.0,45.4,29.95,WSW,247,3.4,4.5,70,0.00,,,0.00,WUHU21623XXSP,2013-10-18 18:59:00,
2013-10-18 15:04:00,55.2,44.9,29.95,West,270,4.3,6.0,68,0.00,,,0.00,WUHU21623XXSP,2013-10-18 19:04:00,
2013-10-18 15:09:00,54.7,44.5,29.96,West,270,5.1,6.9,68,0.00,,,0.00,WUHU21623XXSP,2013-10-18 19:09:00,
2013-10-18 15:14:00,55.8,45.5,29.96,WSW,247,4.0,7.8,68,0.00,,,0.00,WUHU21623XXSP,2013-10-18 19:14:00,
2013-10-18 15:19:00,57.0,46.4,29.95,WSW,242,4.5,7.8,67,0.00,,,0.00,WUHU21623XXSP,2013-10-18 19:19:00,
2013-10-18 15:24:00,58.3,47.0,29.95,WSW,247,4.9,7.6,66,0.00,,,0.00,WUHU21623XXSP,2013-10-18 19:24:00,
2013-10-18 15:29:00,58.8,47.1,29.95,SW,225,5.1,7.4,65,0.00,,,0.00,WUHU21623XXSP,2013-10-18 19:29:00,
2013-10-18 15:34:00,59.2,47.2,29.96,WSW,247,4.0,7.2,64,0.00,,,0.00,WUHU21623XXSP,2013-10-18 19:34:00,
2013-10-18 15:39:00,59.5,47.1,29.95,WSW,247,4.5,7.4,63,0.00,,,0.00,WUHU21623XXSP,2013-10-18 19:39:00,
2013-10-18 15:44:00,59.7,47.0,29.95,WSW,247,3.4,8.3,62,0.00,,,0.00,WUHU21623XXSP,2013-10-18 19:44:00,
2013-10-18 15:49:00,60.4,48.0,29.95,WSW,247,3.9,8.3,63,0.00,,,0.00,WUHU21623XXSP,2013-10-18 19:49:00,
2013-10-18 15:54:00,60.6,47.8,29.95,WSW,247,2.8,7.6,62,0.00,,,0.00,WUHU21623XXSP,2013-10-18 19:54:00,
2013-10-18 15:59:00,60.8,47.7,29.95,WSW,242,4.8,7.8,62,0.00,,,0.00,WUHU21623XXSP,2013-10-18 19:59:00,
2013-10-18 16:04:00,60.6,47.5,29.95,WSW,242,4.0,9.4,62,0.00,,,0.00,WUHU21623XXSP,2013-10-18 20:04:00,
2013-10-18 16:09:00,59.5,46.4,29.95,SW,220,5.1,9.4,62,0.00,,,0.00,WUHU21623XXSP,2013-10-18 20:09:00,
2013-10-18 16:15:00,58.6,45.9,29.95,WSW,240,3.0,8.1,62,0.00,,,0.00,WUHU21623XXSP,2013-10-18 20:15:00,
2013-10-18 16:21:00,57.7,45.4,29.95,WSW,247,2.7,4.0,63,0.00,,,0.00,WUHU21623XXSP,2013-10-18 20:21:00,
2013-10-18 16:27:00,58.1,46.1,29.95,WSW,254,4.6,8.7,64,0.00,,,0.00,WUHU21623XXSP,2013-10-18 20:27:00,
2013-10-18 16:32:00,58.1,45.8,29.95,WSW,247,5.6,8.7,63,0.00,,,0.00,WUHU21623XXSP,2013-10-18 20:32:00,
2013-10-18 16:37:00,57.0,45.1,29.95,WSW,247,1.3,6.7,64,0.00,,,0.00,WUHU21623XXSP,2013-10-18 20:37:00,
2013-10-18 16:42:00,57.2,45.6,29.95,WSW,247,4.0,6.7,65,0.00,,,0.00,WUHU21623XXSP,2013-10-18 20:42:00,
2013-10-18 16:47:00,57.9,45.9,29.95,WSW,247,5.6,6.3,64,0.00,,,0.00,WUHU21623XXSP,2013-10-18 20:47:00,
2013-10-18 16:52:00,57.6,45.6,29.95,WSW,247,4.9,6.3,64,0.00,,,0.00,WUHU21623XXSP,2013-10-18 20:52:00,
2013-10-18 16:57:00,57.4,45.5,29.95,WSW,247,0.0,6.7,64,0.00,,,0.00,WUHU21623XXSP,2013-10-18 20:57:00,
2013-10-18 17:02:00,58.3,46.3,29.95,WSW,239,5.7,7.4,64,0.00,,,0.00,WUHU21623XXSP,2013-10-18 21:02:00,
2013-10-18 17:07:00,58.5,46.2,29.95,WSW,247,3.4,7.4,63,0.00,,,0.00,WUHU21623XXSP,2013-10-18 21:07:00,
2013-10-18 17:12:00,58.8,46.5,29.95,WSW,247,2.2,6.5,63,0.00,,,0.00,WUHU21623XXSP,2013-10-18 21:12:00,
2013-10-18 17:17:00,59.2,46.8,29.95,WSW,247,0.0,4.9,63,0.00,,,0.00,WUHU21623XXSP,2013-10-18 21:17:00,
2013-10-18 17:22:00,59.7,47.3,29.95,WSW,247,4.0,4.0,63,0.00,,,0.00,WUHU21623XXSP,2013-10-18 21:22:00,
2013-10-18 17:28:00,59.7,47.0,29.96,WSW,247,1.1,4.0,62,0.00,,,0.00,WUHU21623XXSP,2013-10-18 21:28:00,
2013-10-18 17:33:00,58.8,46.1,29.96,SW,225,0.0,1.1,62,0.00,,,0.00,WUHU21623XXSP,2013-10-18 21:33:00,
2013-10-18 17:38:00,57.4,45.5,29.96,WSW,247,0.0,3.8,64,0.00,,,0.00,WUHU21623XXSP,2013-10-18 21:38:00,
2013-10-18 17:43:00,56.3,44.7,29.96,West,270,0.0,6.9,65,0.00,,,0.00,WUHU21623XXSP,2013-10-18 21:43:00,
2013-10-18 17:48:00,56.1,44.5,29.96,SW,225,2.7,6.9,65,0.00,,,0.00,WUHU21623XXSP,2013-10-18 21:48:00,
2013-10-18 17:53:00,56.3,45.1,29.96,WSW,247,1.8,4.0,66,0.00,,,0.00,WUHU21623XXSP,2013-10-18 21:53:00,
2013-10-18 17:58:00,56.1,44.5,29.96,SSW,202,4.3,5.6,65,0.00,,,0.00,WUHU21623XXSP,2013-10-18 21:58:00,
2013-10-18 18:03:00,55.4,44.2,29.96,WSW,247,1.1,5.6,66,0.00,,,0.00,WUHU21623XXSP,2013-10-18 22:03:00,
2013-10-18 18:08:00,54.3,43.5,29.96,SW,225,3.8,5.1,66,0.00,,,0.00,WUHU21623XXSP,2013-10-18 22:08:00,
2013-10-18 18:13:00,53.4,42.9,29.96,WSW,247,0.0,5.1,67,0.00,,,0.00,WUHU21623XXSP,2013-10-18 22:13:00,
2013-10-18 18:18:00,52.3,42.2,29.96,SW,225,0.0,4.5,68,0.00,,,0.00,WUHU21623XXSP,2013-10-18 22:18:00,
2013-10-18 18:23:00,51.6,41.8,29.96,SW,225,1.6,2.2,69,0.00,,,0.00,WUHU21623XXSP,2013-10-18 22:23:00,
2013-10-18 18:28:00,50.9,41.4,29.96,West,270,4.3,5.8,70,0.00,,,0.00,WUHU21623XXSP,2013-10-18 22:28:00,
2013-10-18 18:33:00,50.2,41.0,29.96,SSW,202,0.0,5.8,70,0.00,,,0.00,WUHU21623XXSP,2013-10-18 22:33:00,
2013-10-18 18:38:00,49.8,40.9,29.96,SW,225,0.0,1.3,71,0.00,,,0.00,WUHU21623XXSP,2013-10-18 22:38:00,
2013-10-18 18:43:00,49.3,40.7,29.96,West,270,0.0,2.9,72,0.00,,,0.00,WUHU21623XXSP,2013-10-18 22:43:00,
2013-10-18 18:48:00,49.1,40.6,29.97,SSW,202,0.0,3.4,72,0.00,,,0.00,WUHU21623XXSP,2013-10-18 22:48:00,
2013-10-18 18:53:00,48.7,40.4,29.97,SW,225,0.0,4.3,73,0.00,,,0.00,WUHU21623XXSP,2013-10-18 22:53:00,
2013-10-18 18:58:00,48.6,40.6,29.97,SSW,202,0.0,4.3,74,0.00,,,0.00,WUHU21623XXSP,2013-10-18 22:58:00,
2013-10-18 19:03:00,48.2,40.2,29.97,WSW,247,0.0,1.6,74,0.00,,,0.00,WUHU21623XXSP,2013-10-18 23:03:00,
2013-10-18 19:08:00,48.0,40.3,29.97,SW,225,3.4,3.4,74,0.00,,,0.00,WUHU21623XXSP,2013-10-18 23:08:00,
2013-10-18 19:13:00,47.8,40.1,29.97,SW,225,3.6,3.6,74,0.00,,,0.00,WUHU21623XXSP,2013-10-18 23:13:00,
2013-10-18 19:18:00,47.5,40.1,29.97,SSW,212,4.3,4.9,75,0.00,,,0.00,WUHU21623XXSP,2013-10-18 23:18:00,
2013-10-18 19:23:00,47.5,40.1,29.97,SW,225,1.1,4.9,75,0.00,,,0.00,WUHU21623XXSP,2013-10-18 23:23:00,
2013-10-18 19:28:00,47.3,39.9,29.97,SW,225,0.0,3.4,75,0.00,,,0.00,WUHU21623XXSP,2013-10-18 23:28:00,
2013-10-18 19:33:00,47.1,40.0,29.97,SSW,202,0.0,0.0,76,0.00,,,0.00,WUHU21623XXSP,2013-10-18 23:33:00,
2013-10-18 19:38:00,46.8,39.7,29.97,SSW,202,0.0,0.0,76,0.00,,,0.00,WUHU21623XXSP,2013-10-18 23:38:00,
2013-10-18 19:43:00,46.6,39.8,29.97,SSW,202,0.0,0.0,77,0.00,,,0.00,WUHU21623XXSP,2013-10-18 23:43:00,
2013-10-18 19:48:00,46.2,39.6,29.97,SSW,202,0.0,0.0,78,0.00,,,0.00,WUHU21623XXSP,2013-10-18 23:48:00,
2013-10-18 19:53:00,45.7,39.1,29.97,SSW,202,0.0,0.0,78,0.00,,,0.00,WUHU21623XXSP,2013-10-18 23:53:00,
2013-10-18 19:58:00,45.3,39.0,29.97,SSW,202,0.0,0.0,78,0.00,,,0.00,WUHU21623XXSP,2013-10-18 23:58:00,
2013-10-18 20:03:00,45.0,39.2,29.98,SSW,202,0.0,0.0,80,0.00,,,0.00,WUHU21623XXSP,2013-10-19 00:03:00,
2013-10-18 20:08:00,44.6,38.8,29.97,West,270,0.0,0.0,80,0.00,,,0.00,WUHU21623XXSP,2013-10-19 00:08:00,
2013-10-18 20:13:00,44.4,38.6,29.97,SW,225,0.0,0.0,80,0.00,,,0.00,WUHU21623XXSP,2013-10-19 00:13:00,
2013-10-18 20:18:00,44.4,38.9,29.97,SW,225,0.0,0.0,81,0.00,,,0.00,WUHU21623XXSP,2013-10-19 00:18:00,
2013-10-18 20:23:00,44.2,38.7,29.97,WSW,247,0.0,0.0,81,0.00,,,0.00,WUHU21623XXSP,2013-10-19 00:23:00,
2013-10-18 20:28:00,44.4,38.9,29.97,SW,225,0.0,0.0,81,0.00,,,0.00,WUHU21623XXSP,2013-10-19 00:28:00,
2013-10-18 20:33:00,44.4,38.9,29.97,SW,225,0.0,0.0,81,0.00,,,0.00,WUHU21623XXSP,2013-10-19 00:33:00,
2013-10-18 20:38:00,44.4,38.9,29.97,SW,225,0.0,0.0,81,0.00,,,0.00,WUHU21623XXSP,2013-10-19 00:38:00,
2013-10-18 20:43:00,44.4,38.9,29.97,SW,225,0.0,4.3,81,0.00,,,0.00,WUHU21623XXSP,2013-10-19 00:43:00,
2013-10-18 20:48:00,44.4,38.9,29.97,SW,225,0.0,4.3,81,0.00,,,0.00,WUHU21623XXSP,2013-10-19 00:48:00,
2013-10-18 20:53:00,44.4,38.9,29.97,SW,225,1.1,1.1,81,0.00,,,0.00,WUHU21623XXSP,2013-10-19 00:53:00,
2013-10-18 20:58:00,44.4,38.9,29.97,SW,225,0.9,1.1,81,0.00,,,0.00,WUHU21623XXSP,2013-10-19 00:58:00,
2013-10-18 21:03:00,44.6,39.1,29.98,SW,225,0.0,0.9,81,0.00,,,0.00,WUHU21623XXSP,2013-10-19 01:03:00,
2013-10-18 21:10:00,44.6,39.1,29.98,SW,225,0.0,0.0,81,0.00,,,0.00,WUHU21623XXSP,2013-10-19 01:10:00,
2013-10-18 21:17:00,44.4,38.9,29.98,SW,225,0.0,0.0,81,0.00,,,0.00,WUHU21623XXSP,2013-10-19 01:17:00,
2013-10-18 21:22:00,44.4,39.1,29.98,SSW,202,0.0,0.0,82,0.00,,,0.00,WUHU21623XXSP,2013-10-19 01:22:00,
2013-10-18 21:27:00,44.4,39.1,29.98,WSW,247,0.0,0.0,82,0.00,,,0.00,WUHU21623XXSP,2013-10-19 01:27:00,
2013-10-18 21:32:00,44.4,39.1,29.98,West,270,0.0,0.0,82,0.00,,,0.00,WUHU21623XXSP,2013-10-19 01:32:00,
2013-10-18 21:37:00,44.4,39.1,29.98,SW,225,0.0,0.0,82,0.00,,,0.00,WUHU21623XXSP,2013-10-19 01:37:00,
2013-10-18 21:42:00,44.4,39.1,29.98,SW,225,0.0,0.0,82,0.00,,,0.00,WUHU21623XXSP,2013-10-19 01:42:00,
2013-10-18 21:47:00,44.4,39.1,29.98,WSW,247,0.0,0.0,82,0.00,,,0.00,WUHU21623XXSP,2013-10-19 01:47:00,
2013-10-18 21:52:00,44.4,39.1,29.98,WSW,247,0.0,0.0,82,0.00,,,0.00,WUHU21623XXSP,2013-10-19 01:52:00,
2013-10-18 21:57:00,44.2,38.9,29.98,WSW,247,0.0,0.0,82,0.00,,,0.00,WUHU21623XXSP,2013-10-19 01:57:00,
2013-10-18 22:02:00,44.2,38.9,29.99,WSW,247,0.0,0.0,82,0.00,,,0.00,WUHU21623XXSP,2013-10-19 02:02:00,
2013-10-18 22:07:00,43.9,38.6,29.99,WSW,247,0.0,0.0,82,0.00,,,0.00,WUHU21623XXSP,2013-10-19 02:07:00,
2013-10-18 22:12:00,43.7,38.7,29.99,WSW,247,0.0,0.0,82,0.00,,,0.00,WUHU21623XXSP,2013-10-19 02:12:00,
2013-10-18 22:17:00,43.5,38.5,29.99,SW,225,0.0,0.0,82,0.00,,,0.00,WUHU21623XXSP,2013-10-19 02:17:00,
2013-10-18 22:22:00,43.3,38.3,29.99,SW,225,0.0,0.0,82,0.00,,,0.00,WUHU21623XXSP,2013-10-19 02:22:00,
2013-10-18 22:27:00,43.2,38.4,29.99,SW,225,0.0,0.0,83,0.00,,,0.00,WUHU21623XXSP,2013-10-19 02:27:00,
2013-10-18 22:32:00,43.0,38.2,29.99,SW,225,0.0,0.0,83,0.00,,,0.00,WUHU21623XXSP,2013-10-19 02:32:00,
2013-10-18 22:37:00,42.6,38.1,29.99,SW,225,0.0,0.0,84,0.00,,,0.00,WUHU21623XXSP,2013-10-19 02:37:00,
2013-10-18 22:42:00,42.6,38.1,29.99,SW,225,0.0,0.0,84,0.00,,,0.00,WUHU21623XXSP,2013-10-19 02:42:00,
2013-10-18 22:47:00,42.4,38.1,29.99,SW,225,0.0,0.0,85,0.00,,,0.00,WUHU21623XXSP,2013-10-19 02:47:00,
2013-10-18 22:52:00,42.1,37.8,29.99,SW,225,0.0,0.0,85,0.00,,,0.00,WUHU21623XXSP,2013-10-19 02:52:00,
2013-10-18 22:57:00,42.1,37.8,29.99,SW,225,0.0,0.0,85,0.00,,,0.00,WUHU21623XXSP,2013-10-19 02:57:00,
2013-10-18 23:02:00,41.9,37.6,29.99,SW,225,0.0,0.0,85,0.00,,,0.00,WUHU21623XXSP,2013-10-19 03:02:00,
2013-10-18 23:07:00,41.9,37.6,29.99,SW,225,0.0,0.0,85,0.00,,,0.00,WUHU21623XXSP,2013-10-19 03:07:00,
2013-10-18 23:12:00,41.7,37.7,29.99,SE,135,0.0,0.0,86,0.00,,,0.00,WUHU21623XXSP,2013-10-19 03:12:00,
2013-10-18 23:17:00,41.7,37.7,29.99,SE,135,0.0,0.0,86,0.00,,,0.00,WUHU21623XXSP,2013-10-19 03:17:00,
2013-10-18 23:22:00,41.7,37.7,29.99,SE,135,0.0,0.0,86,0.00,,,0.00,WUHU21623XXSP,2013-10-19 03:22:00,
2013-10-18 23:27:00,41.7,37.7,29.99,SE,135,0.0,0.0,86,0.00,,,0.00,WUHU21623XXSP,2013-10-19 03:27:00,
2013-10-18 23:32:00,41.7,37.7,29.99,SE,135,0.0,0.0,86,0.00,,,0.00,WUHU21623XXSP,2013-10-19 03:32:00,
2013-10-18 23:37:00,41.7,37.7,29.99,SE,135,0.0,0.0,86,0.00,,,0.00,WUHU21623XXSP,2013-10-19 03:37:00,
2013-10-18 23:42:00,41.7,37.7,29.98,SE,135,0.0,0.0,86,0.00,,,0.00,WUHU21623XXSP,2013-10-19 03:42:00,
2013-10-18 23:47:00,41.7,37.7,29.98,SE,135,0.0,0.0,86,0.00,,,0.00,WUHU21623XXSP,2013-10-19 03:47:00,
2013-10-18 23:52:00,41.7,37.7,29.99,SE,135,0.0,0.0,86,0.00,,,0.00,WUHU21623XXSP,2013-10-19 03:52:00,
2013-10-18 23:57:00,41.7,37.9,29.99,SE,135,0.0,0.0,86,0.00,,,0.00,WUHU21623XXSP,2013-10-19 03:57:00,